CheckWX is a tool to help pilots better visualize weather data.  It is not intended as a substitute for an official pre-flight weather briefing.

12:29:28 UTC

ENRS METAR
Røst Airport
Norway
Current

5 hours ago

ENRS 260750Z 21003KT CAVOK 01/M05 Q1014
Observed
Mar-26 @ 07:50 UTC
Wind
  • 210° at 3 KTS
Visibility
10,000+ meters
Flight Rules
VFR
Cloud Levels
  • Clear skies
Temperature
C / 34°F
Dewpoint
-5°C / 23°F
Humidity
65%
Altimeter
29.94" Hg
Pressure
1013.92 hPa
Previous

5 hours ago

ENRS 260720Z 21004KT 9999 FEW044 01/M04 Q1014
Observed
Mar-26 @ 07:20 UTC
Wind
  • 210° at 4 KTS
Visibility
10,000+ meters
Flight Rules
VFR
Cloud Levels
  • Few at 4,400' AGL
Temperature
C / 34°F
Dewpoint
-4°C / 25°F
Humidity
70%
Altimeter
29.94" Hg
Pressure
1013.92 hPa
Previous

6 hours ago

ENRS 260650Z 24005KT 9999 FEW040 01/M04 Q1015
Observed
Mar-26 @ 06:50 UTC
Wind
  • 240° at 5 KTS
Visibility
10,000+ meters
Flight Rules
VFR
Cloud Levels
  • Few at 4,000' AGL
Temperature
C / 34°F
Dewpoint
-4°C / 25°F
Humidity
70%
Altimeter
29.97" Hg
Pressure
1014.92 hPa